Time;durP1;ratioP1;P1;durP2;ratioP2;P2;SDS_P1;SDS_P2;PMS_P1;PMS_P2;Temp;Humidity;BMP_temperature;BMP_pressure;BME280_temperature;BME280_humidity;BME280_pressure;Samples;Min_cycle;Max_cycle;Signal;HPM_P1;HPM_P2
2021/11/27 00:00:40;;;;;;;9.25;5.15;;;3.70;91.10;;;;;;5050007;28;20100;-85
2021/11/27 00:03:07;;;;;;;9.02;5.30;;;3.70;91.20;;;;;;5048420;28;20032;-85
2021/11/27 00:05:34;;;;;;;9.38;5.35;;;3.60;91.20;;;;;;5055918;28;20045;-85
2021/11/27 00:08:02;;;;;;;10.18;5.03;;;3.60;91.20;;;;;;5051028;28;20476;-85
2021/11/27 00:10:29;;;;;;;9.63;5.90;;;3.60;91.20;;;;;;5049226;28;20116;-84
2021/11/27 00:12:56;;;;;;;10.35;6.05;;;3.50;91.20;;;;;;5054044;28;20033;-84
2021/11/27 00:15:23;;;;;;;9.73;6.25;;;3.40;91.30;;;;;;5047084;28;20069;-84
2021/11/27 00:17:50;;;;;;;9.23;5.97;;;3.40;91.30;;;;;;5053620;28;20036;-85
2021/11/27 00:20:21;;;;;;;9.32;5.32;;;3.30;91.30;;;;;;5047948;28;20033;-83
2021/11/27 00:22:47;;;;;;;10.93;5.30;;;3.30;91.30;;;;;;5049302;28;20033;-84
2021/11/27 00:25:13;;;;;;;10.27;5.15;;;3.20;91.40;;;;;;5048932;28;20037;-84
2021/11/27 00:27:40;;;;;;;10.13;5.40;;;3.20;91.60;;;;;;5039555;28;20037;-84
2021/11/27 00:30:10;;;;;;;9.13;4.93;;;3.20;91.60;;;;;;5049656;28;20480;-85
2021/11/27 00:32:36;;;;;;;12.95;6.90;;;3.10;91.50;;;;;;5052351;28;20115;-84
2021/11/27 00:35:03;;;;;;;14.75;8.10;;;3.10;91.50;;;;;;5049870;28;20028;-85
2021/11/27 00:37:29;;;;;;;18.45;10.52;;;3.10;91.60;;;;;;5050487;28;20041;-85
2021/11/27 00:39:55;;;;;;;23.52;13.57;;;3.10;91.60;;;;;;5049272;28;20086;-85
2021/11/27 00:42:20;;;;;;;24.60;14.55;;;3.00;91.70;;;;;;5049502;28;20045;-85
2021/11/27 00:44:46;;;;;;;26.98;14.15;;;3.10;91.80;;;;;;5046900;28;20415;-85
2021/11/27 00:47:12;;;;;;;22.25;14.10;;;3.10;91.70;;;;;;5050078;28;20033;-85
2021/11/27 00:49:38;;;;;;;16.48;9.10;;;3.10;91.80;;;;;;5046458;28;20067;-86
2021/11/27 00:52:04;;;;;;;11.20;6.43;;;3.10;91.80;;;;;;5051530;28;20391;-84
2021/11/27 00:54:29;;;;;;;13.88;7.28;;;3.10;91.80;;;;;;5052137;28;20500;-86
2021/11/27 00:56:55;;;;;;;11.68;6.43;;;3.00;91.70;;;;;;5046232;28;20036;-84
2021/11/27 00:59:21;;;;;;;12.20;6.93;;;3.00;91.70;;;;;;5051991;28;20048;-84
2021/11/27 01:01:49;;;;;;;16.10;7.28;;;2.90;91.80;;;;;;5049647;28;20168;-85
2021/11/27 01:04:14;;;;;;;14.73;6.50;;;2.90;91.80;;;;;;5049519;28;20121;-85
2021/11/27 01:06:40;;;;;;;15.55;6.80;;;2.90;91.80;;;;;;5048457;28;20200;-84
2021/11/27 01:09:11;;;;;;;14.30;6.00;;;2.90;91.70;;;;;;5047522;28;20033;-84
2021/11/27 01:11:50;;;;;;;13.85;5.93;;;2.90;91.60;;;;;;5045766;28;20056;-85
2021/11/27 01:14:20;;;;;;;14.57;6.10;;;2.80;91.70;;;;;;5050140;28;20436;-85
2021/11/27 01:16:50;;;;;;;17.10;6.70;;;2.80;91.70;;;;;;5044532;28;20064;-85
2021/11/27 01:19:17;;;;;;;19.80;7.50;;;2.70;91.70;;;;;;5048448;28;20400;-83
2021/11/27 01:21:49;;;;;;;16.15;6.18;;;2.70;91.60;;;;;;5050183;28;20123;-85
2021/11/27 01:24:16;;;;;;;20.13;7.05;;;2.70;91.60;;;;;;5045891;28;20060;-85
2021/11/27 01:26:43;;;;;;;16.38;6.13;;;2.70;91.60;;;;;;5049653;28;20369;-84
2021/11/27 01:29:08;;;;;;;21.10;6.50;;;2.60;91.40;;;;;;5045513;28;20047;-85
2021/11/27 01:31:35;;;;;;;16.80;5.20;;;2.60;91.40;;;;;;5048086;28;20056;-85
2021/11/27 01:34:03;;;;;;;17.60;5.15;;;2.60;91.40;;;;;;5044743;28;20029;-83
2021/11/27 01:36:28;;;;;;;14.70;5.28;;;2.50;91.50;;;;;;5043737;28;20052;-85
2021/11/27 01:38:54;;;;;;;16.98;5.05;;;2.50;91.60;;;;;;5048150;28;20033;-85
2021/11/27 01:41:20;;;;;;;16.15;6.28;;;2.60;91.60;;;;;;5070083;28;20017;-85
2021/11/27 01:43:46;;;;;;;18.35;5.35;;;2.60;91.60;;;;;;5072335;28;20058;-85
2021/11/27 01:46:13;;;;;;;17.88;5.38;;;2.60;91.60;;;;;;5066194;28;20055;-85
2021/11/27 01:48:38;;;;;;;22.33;5.57;;;2.60;91.40;;;;;;5046960;28;20377;-85
2021/11/27 01:51:11;;;;;;;16.67;4.55;;;2.60;91.40;;;;;;5057469;28;20036;-84
2021/11/27 01:53:40;;;;;;;19.50;4.53;;;2.60;91.30;;;;;;5050419;28;20159;-85
2021/11/27 01:56:11;;;;;;;18.75;4.82;;;2.60;91.20;;;;;;5039354;28;20875;-84
2021/11/27 01:58:38;;;;;;;16.85;5.10;;;2.60;91.00;;;;;;5037583;28;20538;-84
2021/11/27 02:01:08;;;;;;;18.90;5.13;;;2.70;90.90;;;;;;5048741;28;20044;-85
2021/11/27 02:03:35;;;;;;;16.52;4.53;;;2.60;90.70;;;;;;5048122;28;20060;-85
2021/11/27 02:06:03;;;;;;;20.63;4.75;;;2.70;90.60;;;;;;5048135;28;20043;-85
2021/11/27 02:08:29;;;;;;;20.48;4.65;;;2.60;90.50;;;;;;5047236;28;20124;-86
2021/11/27 02:10:55;;;;;;;17.60;4.93;;;2.60;90.40;;;;;;5039526;28;20094;-85
2021/11/27 02:13:21;;;;;;;22.10;5.88;;;2.60;90.40;;;;;;5043436;28;20418;-85
2021/11/27 02:15:47;;;;;;;16.90;4.55;;;2.60;90.20;;;;;;5044201;28;20025;-85
2021/11/27 02:18:13;;;;;;;17.23;4.80;;;2.60;90.10;;;;;;5040858;28;20033;-86
2021/11/27 02:20:42;;;;;;;16.95;4.85;;;2.50;90.10;;;;;;5046737;28;20048;-85
2021/11/27 02:23:08;;;;;;;18.42;4.97;;;2.40;90.10;;;;;;5047502;28;20128;-85
2021/11/27 02:25:35;;;;;;;17.38;4.75;;;2.40;90.10;;;;;;5036805;28;20497;-85
2021/11/27 02:28:01;;;;;;;19.67;4.80;;;2.40;90.10;;;;;;5048476;28;20467;-85
2021/11/27 02:30:27;;;;;;;17.98;5.00;;;2.30;90.10;;;;;;5049157;28;21953;-85
2021/11/27 02:32:53;;;;;;;16.85;5.07;;;2.20;90.20;;;;;;5049222;28;20036;-86
2021/11/27 02:35:19;;;;;;;16.92;5.00;;;2.20;90.40;;;;;;5045541;28;20043;-84
2021/11/27 02:37:45;;;;;;;17.80;4.90;;;2.20;90.50;;;;;;5049984;28;20029;-85
2021/11/27 02:40:12;;;;;;;20.27;5.20;;;2.20;90.50;;;;;;5051581;28;20032;-85
2021/11/27 02:42:38;;;;;;;20.08;5.13;;;2.20;90.50;;;;;;5052286;28;20449;-85
2021/11/27 02:45:06;;;;;;;19.83;5.35;;;2.10;90.40;;;;;;5050722;28;20495;-85
2021/11/27 02:47:32;;;;;;;22.83;4.82;;;2.10;90.50;;;;;;5047269;28;20033;-85
2021/11/27 02:50:01;;;;;;;18.77;4.78;;;2.10;90.50;;;;;;5048203;28;20436;-85
2021/11/27 02:52:29;;;;;;;17.55;4.50;;;2.10;90.50;;;;;;5049680;28;20033;-85
2021/11/27 02:54:55;;;;;;;20.33;5.22;;;2.00;90.40;;;;;;5056377;28;20028;-85
2021/11/27 02:57:21;;;;;;;20.63;5.35;;;2.00;90.50;;;;;;5053356;28;20048;-85
2021/11/27 02:59:47;;;;;;;19.65;4.97;;;1.90;90.50;;;;;;5050621;28;20396;-85
2021/11/27 03:02:12;;;;;;;13.80;4.45;;;1.90;90.60;;;;;;5050234;28;20521;-85
2021/11/27 03:04:38;;;;;;;18.25;4.13;;;1.90;90.70;;;;;;5051611;28;20044;-85
2021/11/27 03:07:05;;;;;;;15.85;5.35;;;1.90;90.80;;;;;;5050009;28;20476;-85
2021/11/27 03:09:32;;;;;;;17.98;5.28;;;1.90;90.90;;;;;;5051561;28;20099;-85
2021/11/27 03:11:59;;;;;;;19.35;4.80;;;1.90;90.80;;;;;;5050255;28;20046;-85
2021/11/27 03:14:26;;;;;;;14.55;4.40;;;1.90;90.80;;;;;;5053373;28;20056;-85
2021/11/27 03:16:53;;;;;;;17.65;4.43;;;1.80;90.70;;;;;;5051679;28;20029;-86
2021/11/27 03:19:19;;;;;;;15.85;5.10;;;1.80;90.60;;;;;;5053828;28;20025;-86
2021/11/27 03:21:45;;;;;;;18.27;5.25;;;1.80;90.60;;;;;;5048015;28;20372;-85
2021/11/27 03:24:11;;;;;;;14.27;5.03;;;1.70;90.60;;;;;;5050035;28;20032;-85
2021/11/27 03:26:37;;;;;;;18.95;5.60;;;1.70;90.60;;;;;;5056354;28;20045;-85
2021/11/27 03:29:03;;;;;;;23.50;5.88;;;1.70;90.70;;;;;;5043190;28;20439;-84
2021/11/27 03:31:29;;;;;;;17.75;4.90;;;1.80;90.80;;;;;;5052001;28;20041;-85
2021/11/27 03:33:55;;;;;;;17.27;5.13;;;1.70;90.70;;;;;;5056005;28;20032;-85
2021/11/27 03:36:21;;;;;;;18.02;4.85;;;1.70;90.70;;;;;;5049961;28;20041;-85
2021/11/27 03:38:47;;;;;;;15.95;4.43;;;1.70;90.70;;;;;;5054033;28;20480;-84
2021/11/27 03:41:14;;;;;;;22.67;4.90;;;1.70;90.70;;;;;;5051063;28;20021;-85
2021/11/27 03:43:41;;;;;;;19.55;5.60;;;1.70;90.70;;;;;;5046251;28;20461;-85
2021/11/27 03:46:08;;;;;;;21.17;5.60;;;1.60;90.70;;;;;;5044932;28;20045;-85
2021/11/27 03:48:37;;;;;;;16.20;5.25;;;1.70;90.80;;;;;;5050263;28;20082;-85
2021/11/27 03:51:06;;;;;;;21.17;5.45;;;1.70;90.80;;;;;;5049809;28;20033;-84
2021/11/27 03:53:35;;;;;;;17.40;4.75;;;1.70;90.70;;;;;;5047612;28;20109;-85
2021/11/27 03:56:04;;;;;;;18.17;5.28;;;1.70;90.80;;;;;;5048447;28;20072;-84
2021/11/27 03:58:31;;;;;;;18.88;4.95;;;1.60;90.60;;;;;;5046319;28;20036;-86
2021/11/27 04:00:57;;;;;;;15.32;4.57;;;1.60;90.60;;;;;;5052608;28;20044;-84
2021/11/27 04:03:24;;;;;;;17.80;4.47;;;1.60;90.50;;;;;;5050761;28;20391;-85
2021/11/27 04:05:53;;;;;;;22.27;4.50;;;1.60;90.60;;;;;;5048258;28;20053;-85
2021/11/27 04:08:19;;;;;;;19.90;5.40;;;1.60;90.60;;;;;;5053813;28;20047;-84
2021/11/27 04:10:46;;;;;;;21.92;5.00;;;1.60;90.60;;;;;;5046613;28;20088;-85
2021/11/27 04:13:12;;;;;;;17.70;5.13;;;1.60;90.70;;;;;;5050768;28;20104;-86
2021/11/27 04:15:38;;;;;;;19.95;5.50;;;1.50;90.70;;;;;;5049408;28;20128;-84
2021/11/27 04:18:04;;;;;;;15.45;4.80;;;1.60;90.80;;;;;;5044622;28;20033;-85
2021/11/27 04:20:30;;;;;;;30.75;5.43;;;1.60;90.80;;;;;;5053721;28;20040;-85
2021/11/27 04:22:56;;;;;;;21.25;5.60;;;1.60;90.90;;;;;;5048807;28;20029;-85
2021/11/27 04:25:23;;;;;;;19.95;5.90;;;1.60;90.80;;;;;;5041692;28;20049;-85
2021/11/27 04:27:49;;;;;;;18.58;5.00;;;1.60;90.70;;;;;;5047098;28;20028;-85
2021/11/27 04:30:22;;;;;;;13.35;4.70;;;1.60;90.70;;;;;;5065267;28;20017;-86
2021/11/27 04:32:50;;;;;;;14.70;5.05;;;1.60;90.70;;;;;;5071164;28;20743;-86
2021/11/27 04:35:16;;;;;;;20.38;5.32;;;1.60;90.70;;;;;;5070198;28;20021;-85
2021/11/27 04:37:43;;;;;;;17.48;5.75;;;1.60;90.60;;;;;;5058620;28;20044;-85
2021/11/27 04:40:09;;;;;;;15.23;4.72;;;1.60;90.60;;;;;;5050692;28;20028;-84
2021/11/27 04:42:35;;;;;;;16.92;5.18;;;1.70;90.50;;;;;;5050043;28;20400;-85
2021/11/27 04:45:03;;;;;;;11.68;4.88;;;1.70;90.50;;;;;;5049952;28;20041;-84
2021/11/27 04:47:29;;;;;;;16.70;5.65;;;1.70;90.50;;;;;;5043569;28;20102;-84
2021/11/27 04:49:55;;;;;;;17.50;5.13;;;1.70;90.30;;;;;;5050021;28;20120;-84
2021/11/27 04:52:21;;;;;;;14.00;4.95;;;1.70;90.30;;;;;;5048460;28;20045;-84
2021/11/27 04:54:47;;;;;;;15.90;4.85;;;1.80;90.20;;;;;;5048638;28;20041;-84
2021/11/27 04:57:13;;;;;;;13.93;4.25;;;1.80;90.10;;;;;;5047440;28;20380;-85
2021/11/27 04:59:39;;;;;;;17.52;6.18;;;1.90;90.00;;;;;;5044585;28;20452;-85
2021/11/27 05:02:05;;;;;;;11.82;4.88;;;1.80;89.90;;;;;;5045870;28;20029;-85
2021/11/27 05:04:31;;;;;;;15.30;5.07;;;1.90;89.90;;;;;;5042259;28;20526;-86
2021/11/27 05:06:57;;;;;;;19.55;6.10;;;1.90;89.80;;;;;;5045464;28;20108;-85
2021/11/27 05:09:23;;;;;;;22.42;6.47;;;2.00;89.70;;;;;;5046173;28;20120;-84
2021/11/27 05:11:49;;;;;;;25.10;7.05;;;2.00;89.70;;;;;;5046700;28;20155;-84
2021/11/27 05:14:15;;;;;;;22.05;7.32;;;2.00;89.70;;;;;;5050770;28;20098;-85
2021/11/27 05:16:41;;;;;;;25.80;7.50;;;2.10;89.70;;;;;;5051052;28;20614;-85
2021/11/27 05:19:06;;;;;;;19.90;5.55;;;2.00;89.80;;;;;;5048076;28;20060;-87
2021/11/27 05:21:32;;;;;;;20.98;6.45;;;2.10;89.80;;;;;;5048901;28;20048;-87
2021/11/27 05:23:58;;;;;;;21.30;6.07;;;2.10;89.60;;;;;;5051091;28;20128;-84
2021/11/27 05:26:23;;;;;;;21.80;6.20;;;2.10;89.60;;;;;;5048528;28;20056;-85
2021/11/27 05:28:49;;;;;;;22.13;6.63;;;2.10;89.50;;;;;;5049989;28;20051;-85
2021/11/27 05:31:16;;;;;;;23.20;6.55;;;2.10;89.40;;;;;;5047459;28;21038;-85
2021/11/27 05:36:17;;;;;;;23.88;6.18;;;2.10;89.20;;;;;;5057834;28;20096;-85
2021/11/27 05:38:45;;;;;;;16.88;5.20;;;2.20;89.30;;;;;;5051152;28;20037;-86
2021/11/27 05:41:12;;;;;;;17.40;5.28;;;2.20;89.30;;;;;;5048949;28;20124;-85
2021/11/27 05:43:38;;;;;;;17.10;5.28;;;2.20;89.30;;;;;;5048638;28;20029;-85
2021/11/27 05:46:03;;;;;;;23.40;6.55;;;2.20;89.20;;;;;;5049911;28;20128;-87
2021/11/27 05:48:29;;;;;;;21.38;5.72;;;2.20;89.30;;;;;;5041957;28;20072;-84
2021/11/27 05:50:55;;;;;;;18.38;6.20;;;2.20;89.30;;;;;;5047878;28;20033;-85
2021/11/27 05:53:21;;;;;;;22.67;5.78;;;2.20;89.30;;;;;;5043934;28;20476;-85
2021/11/27 05:55:49;;;;;;;18.15;5.50;;;2.20;89.30;;;;;;5041524;28;20037;-85
2021/11/27 05:58:16;;;;;;;19.90;6.00;;;2.20;89.30;;;;;;5048787;28;20121;-85
2021/11/27 06:00:42;;;;;;;20.38;6.22;;;2.20;89.40;;;;;;5049229;28;21289;-85
2021/11/27 06:03:09;;;;;;;17.05;5.35;;;2.20;89.50;;;;;;5047799;28;20059;-85
2021/11/27 06:05:35;;;;;;;17.08;5.72;;;2.30;89.50;;;;;;5047411;28;20045;-85
2021/11/27 06:08:01;;;;;;;16.38;6.38;;;2.30;89.50;;;;;;5041166;28;20034;-85
2021/11/27 06:10:27;;;;;;;18.58;6.75;;;2.30;89.50;;;;;;5042915;28;20140;-84
2021/11/27 06:12:53;;;;;;;25.00;6.53;;;2.30;89.40;;;;;;5046506;28;20037;-85
2021/11/27 06:15:19;;;;;;;18.50;6.13;;;2.30;89.50;;;;;;5041927;28;20044;-85
2021/11/27 06:17:45;;;;;;;19.98;5.75;;;2.40;89.50;;;;;;5048636;28;20036;-85
2021/11/27 06:20:11;;;;;;;17.25;6.00;;;2.30;89.50;;;;;;5050476;28;20384;-86
2021/11/27 06:22:36;;;;;;;15.10;5.68;;;2.40;89.40;;;;;;5043912;28;20472;-86
2021/11/27 06:25:03;;;;;;;18.52;6.13;;;2.40;89.40;;;;;;5048843;28;20038;-86
2021/11/27 06:27:28;;;;;;;24.42;6.82;;;2.40;89.50;;;;;;5051584;28;20483;-86
2021/11/27 06:29:54;;;;;;;18.17;6.30;;;2.30;89.50;;;;;;5050389;28;20499;-86
2021/11/27 06:32:23;;;;;;;18.52;6.50;;;2.40;89.60;;;;;;5050297;28;20033;-85
2021/11/27 06:34:54;;;;;;;25.25;6.78;;;2.40;89.50;;;;;;5047763;28;20025;-85
2021/11/27 06:37:22;;;;;;;17.52;5.82;;;2.40;89.30;;;;;;5046370;28;20103;-86
2021/11/27 06:39:48;;;;;;;17.33;6.32;;;2.40;89.20;;;;;;5050951;28;20045;-85
2021/11/27 06:42:15;;;;;;;23.80;6.18;;;2.50;89.10;;;;;;5047095;28;20095;-85
2021/11/27 06:44:47;;;;;;;19.20;5.45;;;2.40;89.10;;;;;;5052290;28;20044;-86
2021/11/27 06:47:17;;;;;;;20.35;5.45;;;2.40;89.10;;;;;;5046957;28;20485;-86
2021/11/27 06:49:44;;;;;;;15.48;5.25;;;2.40;89.10;;;;;;5046574;28;20040;-85
2021/11/27 06:52:10;;;;;;;16.20;5.28;;;2.40;89.30;;;;;;5050309;28;20033;-85
2021/11/27 06:54:37;;;;;;;14.10;5.65;;;2.50;89.20;;;;;;5042261;28;20048;-86
2021/11/27 06:57:04;;;;;;;21.70;6.95;;;2.50;89.30;;;;;;5046196;28;20028;-86
2021/11/27 06:59:30;;;;;;;14.55;5.20;;;2.50;89.30;;;;;;5046524;28;20030;-86
2021/11/27 07:01:57;;;;;;;16.30;4.82;;;2.50;89.20;;;;;;5053044;28;20440;-89
2021/11/27 07:04:22;;;;;;;17.15;5.47;;;2.50;89.20;;;;;;5047123;28;20156;-86
2021/11/27 07:06:49;;;;;;;18.70;5.63;;;2.50;89.20;;;;;;5045822;28;20128;-86
2021/11/27 07:09:15;;;;;;;19.55;6.10;;;2.40;89.30;;;;;;5050394;28;20867;-85
2021/11/27 07:11:41;;;;;;;15.63;5.80;;;2.50;89.30;;;;;;5052316;28;20051;-85
2021/11/27 07:14:07;;;;;;;16.35;6.40;;;2.50;89.20;;;;;;5050114;28;20377;-85
2021/11/27 07:16:33;;;;;;;15.68;5.70;;;2.50;89.30;;;;;;5047177;28;20366;-86
2021/11/27 07:18:58;;;;;;;18.67;5.63;;;2.50;89.60;;;;;;5041966;28;20124;-86
2021/11/27 07:21:24;;;;;;;12.90;5.80;;;2.50;89.50;;;;;;5045522;28;20484;-80
2021/11/27 07:23:51;;;;;;;15.77;5.65;;;2.60;89.50;;;;;;5045827;28;20488;-79
2021/11/27 07:26:17;;;;;;;17.27;6.65;;;2.60;89.60;;;;;;5046042;28;20125;-80
2021/11/27 07:28:43;;;;;;;17.73;6.03;;;2.60;89.70;;;;;;5045066;28;20045;-80
2021/11/27 07:31:09;;;;;;;22.67;6.68;;;2.60;89.70;;;;;;5045675;28;20033;-81
2021/11/27 07:33:34;;;;;;;18.90;6.93;;;2.60;89.60;;;;;;5047496;28;20045;-82
2021/11/27 07:36:00;;;;;;;21.27;6.82;;;2.60;89.80;;;;;;5046781;28;20040;-80
2021/11/27 07:38:26;;;;;;;22.05;6.05;;;2.60;90.00;;;;;;5049194;28;20033;-80
2021/11/27 07:40:52;;;;;;;17.65;5.68;;;2.60;90.20;;;;;;5043478;28;20064;-79
2021/11/27 07:43:17;;;;;;;16.23;6.10;;;2.60;90.10;;;;;;5041813;28;20029;-80
2021/11/27 07:45:43;;;;;;;17.92;5.53;;;2.70;90.20;;;;;;5051374;28;20064;-80
2021/11/27 07:48:09;;;;;;;14.35;5.68;;;2.70;90.20;;;;;;5044682;28;20446;-80
2021/11/27 07:50:34;;;;;;;19.55;5.65;;;2.70;90.20;;;;;;5038164;28;20599;-82
2021/11/27 07:53:00;;;;;;;17.55;5.63;;;2.80;90.20;;;;;;5042733;28;20063;-80
2021/11/27 07:55:28;;;;;;;19.70;7.25;;;2.80;90.20;;;;;;5043624;28;20041;-79
2021/11/27 07:57:54;;;;;;;14.23;6.65;;;2.80;90.20;;;;;;5043373;28;20036;-80
2021/11/27 08:00:20;;;;;;;23.00;8.57;;;2.80;90.20;;;;;;5039014;28;20129;-79
2021/11/27 08:02:46;;;;;;;18.52;7.20;;;2.90;90.30;;;;;;5046280;28;20064;-80
2021/11/27 08:05:12;;;;;;;13.40;5.22;;;2.90;90.30;;;;;;5050128;28;20033;-80
2021/11/27 08:07:38;;;;;;;14.52;5.47;;;2.90;90.10;;;;;;5046434;28;20391;-81
2021/11/27 08:10:06;;;;;;;17.50;5.85;;;2.90;90.10;;;;;;5046428;28;20029;-80
2021/11/27 08:12:32;;;;;;;15.02;5.60;;;2.90;90.10;;;;;;5044758;28;20063;-81
2021/11/27 08:14:57;;;;;;;13.88;5.95;;;2.80;90.20;;;;;;5054663;28;20570;-79
2021/11/27 08:17:23;;;;;;;13.77;5.65;;;2.80;90.50;;;;;;5046739;28;20472;-79
2021/11/27 08:19:49;;;;;;;14.27;5.80;;;2.80;90.60;;;;;;5053809;28;20040;-80
2021/11/27 08:22:14;;;;;;;22.73;7.05;;;2.80;90.60;;;;;;5043193;28;20029;-81
2021/11/27 08:24:40;;;;;;;14.57;7.28;;;2.90;90.50;;;;;;5053131;28;20056;-81
2021/11/27 08:27:06;;;;;;;13.05;7.32;;;2.80;90.40;;;;;;5047532;28;20084;-81
2021/11/27 08:29:31;;;;;;;20.88;7.65;;;2.80;90.40;;;;;;5047429;28;20061;-81
2021/11/27 08:31:57;;;;;;;16.55;7.65;;;2.80;90.50;;;;;;5051814;28;20029;-81
2021/11/27 08:34:24;;;;;;;15.70;7.22;;;2.80;90.40;;;;;;5049632;28;20029;-80
2021/11/27 08:36:49;;;;;;;16.45;6.28;;;2.80;90.30;;;;;;5049099;28;20524;-81
2021/11/27 08:39:15;;;;;;;17.13;7.63;;;2.80;90.40;;;;;;5053313;28;20163;-80
2021/11/27 08:41:43;;;;;;;14.77;7.43;;;2.80;90.30;;;;;;5048751;28;20112;-80
2021/11/27 08:44:09;;;;;;;15.63;8.35;;;2.80;90.50;;;;;;5048909;28;20045;-79
2021/11/27 08:46:35;;;;;;;14.30;7.07;;;2.70;90.50;;;;;;5047259;28;20063;-80
2021/11/27 08:49:01;;;;;;;15.98;8.15;;;2.80;90.60;;;;;;5050159;28;20492;-80
2021/11/27 08:51:27;;;;;;;16.05;8.02;;;2.80;90.70;;;;;;5053602;28;20032;-80
2021/11/27 08:53:53;;;;;;;17.73;8.60;;;2.80;90.70;;;;;;5048683;28;20037;-81
2021/11/27 08:56:19;;;;;;;20.70;7.70;;;2.90;90.70;;;;;;5050194;28;20033;-79
2021/11/27 08:58:45;;;;;;;14.50;7.50;;;2.90;90.80;;;;;;5049311;28;20064;-81
2021/11/27 09:01:12;;;;;;;19.30;8.02;;;2.90;90.70;;;;;;5050139;28;20057;-80
2021/11/27 09:03:39;;;;;;;13.60;6.85;;;2.90;90.80;;;;;;5050824;28;20041;-80
2021/11/27 09:06:06;;;;;;;13.55;7.50;;;3.00;90.80;;;;;;5052654;28;20045;-80
2021/11/27 09:08:32;;;;;;;13.52;7.30;;;3.00;90.70;;;;;;5050411;28;20044;-80
2021/11/27 09:10:58;;;;;;;17.63;8.05;;;3.10;90.70;;;;;;5048891;28;20057;-81
2021/11/27 09:13:23;;;;;;;13.82;7.50;;;3.10;90.50;;;;;;5047117;28;20029;-82
2021/11/27 09:15:49;;;;;;;18.35;7.65;;;3.10;90.50;;;;;;5049179;28;20408;-81
2021/11/27 09:18:15;;;;;;;15.45;6.60;;;3.10;90.50;;;;;;5031177;28;20128;-80
2021/11/27 09:20:41;;;;;;;13.82;6.93;;;3.20;90.60;;;;;;5048910;28;20045;-81
2021/11/27 09:23:07;;;;;;;16.10;6.82;;;3.10;90.60;;;;;;5046107;28;20090;-80
2021/11/27 09:25:33;;;;;;;13.32;7.18;;;3.20;90.60;;;;;;5056324;28;20053;-80
2021/11/27 09:27:59;;;;;;;17.35;9.68;;;3.30;90.60;;;;;;5047385;28;20068;-81
2021/11/27 09:30:28;;;;;;;12.70;6.07;;;3.40;90.60;;;;;;5046060;28;20035;-79
2021/11/27 09:32:54;;;;;;;14.90;6.50;;;3.40;90.40;;;;;;5037786;28;20500;-79
2021/11/27 09:35:21;;;;;;;14.70;6.05;;;3.40;90.20;;;;;;5047811;28;20395;-79
2021/11/27 09:37:46;;;;;;;13.65;7.32;;;3.50;89.90;;;;;;5048191;28;20041;-79
2021/11/27 09:40:13;;;;;;;12.98;7.03;;;3.40;89.60;;;;;;5041282;28;20036;-80
2021/11/27 09:42:39;;;;;;;13.90;6.80;;;3.40;89.50;;;;;;5039806;28;20057;-79
2021/11/27 09:45:06;;;;;;;11.20;7.40;;;3.30;89.30;;;;;;5048511;28;20060;-78
2021/11/27 09:47:34;;;;;;;13.45;7.25;;;3.20;89.00;;;;;;5049635;28;20061;-78
2021/11/27 09:50:04;;;;;;;14.00;8.60;;;3.20;89.10;;;;;;5047930;28;20324;-81
2021/11/27 09:52:30;;;;;;;13.45;7.90;;;3.20;89.30;;;;;;5045208;28;20485;-78
2021/11/27 09:54:57;;;;;;;15.93;8.70;;;3.20;89.30;;;;;;5051877;28;20061;-78
2021/11/27 09:57:22;;;;;;;16.10;10.20;;;3.30;89.20;;;;;;5052897;28;20094;-78
2021/11/27 09:59:48;;;;;;;11.77;8.43;;;3.20;89.30;;;;;;5048381;28;20041;-78
2021/11/27 10:02:17;;;;;;;17.13;9.80;;;3.30;89.50;;;;;;5049364;28;20041;-81
2021/11/27 10:04:49;;;;;;;18.05;11.15;;;3.30;89.50;;;;;;5044552;28;20055;-79
2021/11/27 10:07:17;;;;;;;15.43;8.10;;;3.40;89.60;;;;;;5051649;28;20041;-81
2021/11/27 10:09:46;;;;;;;19.75;9.65;;;3.50;89.60;;;;;;5051373;28;20396;-80
2021/11/27 10:12:12;;;;;;;21.48;14.02;;;3.60;89.60;;;;;;5044089;28;20045;-81
2021/11/27 10:14:40;;;;;;;19.02;9.10;;;3.60;89.60;;;;;;5052796;28;20045;-80
2021/11/27 10:17:14;;;;;;;12.77;7.15;;;3.70;89.50;;;;;;5051302;28;20045;-81
2021/11/27 10:19:43;;;;;;;14.13;8.43;;;3.70;89.30;;;;;;5052644;28;20396;-80
2021/11/27 10:22:15;;;;;;;15.15;7.95;;;3.90;89.40;;;;;;5048916;28;20049;-79
2021/11/27 10:24:46;;;;;;;16.65;10.85;;;4.10;89.40;;;;;;5050025;28;20033;-82
2021/11/27 10:27:24;;;;;;;16.95;8.90;;;4.20;89.10;;;;;;5050092;28;20046;-79
2021/11/27 10:29:58;;;;;;;16.02;10.23;;;4.40;89.00;;;;;;5049677;28;20032;-79
2021/11/27 10:32:31;;;;;;;16.05;8.20;;;4.70;88.60;;;;;;5050825;28;20392;-80
2021/11/27 10:34:57;;;;;;;16.15;8.40;;;4.90;87.40;;;;;;5049234;28;20055;-79
2021/11/27 10:37:36;;;;;;;15.40;8.05;;;4.90;86.10;;;;;;5050383;28;20468;-80
2021/11/27 10:40:10;;;;;;;14.88;8.07;;;4.40;86.10;;;;;;5057562;28;20116;-80
2021/11/27 10:42:37;;;;;;;21.00;10.23;;;4.30;87.60;;;;;;5052893;28;20048;-80
2021/11/27 10:45:30;;;;;;;17.73;10.10;;;4.10;87.50;;;;;;5047032;28;20036;-79
2021/11/27 10:48:19;;;;;;;17.58;10.48;;;4.20;88.00;;;;;;5040837;28;20099;-79
2021/11/27 10:50:59;;;;;;;16.33;7.97;;;4.30;88.30;;;;;;5055205;28;20075;-80
2021/11/27 10:53:27;;;;;;;19.85;9.02;;;4.10;87.80;;;;;;5054074;28;20048;-82
2021/11/27 10:56:02;;;;;;;17.90;10.07;;;4.20;88.50;;;;;;5049101;28;20043;-80
2021/11/27 10:58:28;;;;;;;;;;;4.40;88.80;;;;;;5044743;28;20048;-79
2021/11/27 11:00:54;;;;;;;24.63;12.85;;;4.50;88.20;;;;;;5046144;28;20257;-79
2021/11/27 11:03:37;;;;;;;16.75;10.63;;;4.50;87.70;;;;;;5044011;28;20030;-79
2021/11/27 11:06:27;;;;;;;21.23;11.77;;;4.40;87.90;;;;;;5044045;28;20585;-79
2021/11/27 11:08:54;;;;;;;18.75;11.73;;;4.60;88.10;;;;;;5039591;28;20040;-80
2021/11/27 11:11:25;;;;;;;12.65;7.80;;;4.70;88.80;;;;;;5044790;28;20041;-79
2021/11/27 11:13:57;;;;;;;10.95;6.18;;;4.90;87.90;;;;;;5048873;28;20037;-79
2021/11/27 11:16:26;;;;;;;16.48;11.57;;;5.00;87.00;;;;;;5047753;28;20503;-79
2021/11/27 11:19:12;;;;;;;11.90;7.20;;;5.10;86.60;;;;;;5045227;28;20083;-79
2021/11/27 11:21:38;;;;;;;19.77;13.23;;;5.20;86.20;;;;;;5045188;28;20472;-79
2021/11/27 11:24:26;;;;;;;14.95;9.48;;;5.40;86.00;;;;;;5047408;28;20051;-79
2021/11/27 11:26:55;;;;;;;13.43;6.97;;;5.50;85.20;;;;;;5047442;28;20128;-79
2021/11/27 11:29:40;;;;;;;10.35;7.65;;;5.40;84.30;;;;;;5049375;28;20048;-78
2021/11/27 11:32:20;;;;;;;25.45;18.02;;;5.40;85.20;;;;;;5051898;28;20480;-80
2021/11/27 11:34:46;;;;;;;18.88;11.40;;;5.50;84.40;;;;;;5049637;28;20112;-79
2021/11/27 11:37:12;;;;;;;15.57;9.63;;;5.60;84.60;;;;;;5043842;28;20499;-80
2021/11/27 11:39:39;;;;;;;11.05;7.50;;;5.50;84.50;;;;;;5043178;28;20490;-79
2021/11/27 11:42:06;;;;;;;12.10;6.80;;;5.40;84.60;;;;;;5049729;28;20044;-79
2021/11/27 11:44:32;;;;;;;87.40;77.88;;;5.40;85.00;;;;;;5047584;28;20487;-82
2021/11/27 11:46:59;;;;;;;44.80;39.83;;;5.40;84.50;;;;;;5044916;28;20045;-78
2021/11/27 11:49:26;;;;;;;9.40;6.60;;;5.50;84.90;;;;;;5046832;28;20037;-79
2021/11/27 11:52:06;;;;;;;15.48;7.40;;;5.20;83.50;;;;;;5049321;28;20083;-79
2021/11/27 11:54:33;;;;;;;10.63;7.22;;;5.00;84.20;;;;;;5041812;28;20426;-79
2021/11/27 11:57:08;;;;;;;13.13;6.95;;;5.00;84.90;;;;;;5040865;28;20055;-80
2021/11/27 11:59:37;;;;;;;;;;;5.00;85.50;;;;;;5047459;28;20048;-81
2021/11/27 12:02:22;;;;;;;15.50;11.63;;;5.00;85.60;;;;;;5041658;28;19979;-80
2021/11/27 12:04:57;;;;;;;13.65;10.73;;;5.00;86.00;;;;;;5042134;28;20032;-81
2021/11/27 12:07:43;;;;;;;10.65;7.50;;;5.10;86.20;;;;;;5040664;28;20586;-80
2021/11/27 12:10:29;;;;;;;13.77;7.60;;;5.10;85.60;;;;;;5043312;28;20037;-80
2021/11/27 12:13:07;;;;;;;12.45;7.60;;;5.10;85.60;;;;;;5043298;28;20040;-80
2021/11/27 12:15:40;;;;;;;11.90;7.55;;;5.10;85.20;;;;;;5040678;28;20162;-80
2021/11/27 12:18:10;;;;;;;12.10;7.35;;;5.20;85.40;;;;;;5036894;28;20026;-81
2021/11/27 12:20:46;;;;;;;9.95;7.03;;;5.20;84.70;;;;;;5043833;28;21324;-81
2021/11/27 12:23:35;;;;;;;10.35;6.63;;;5.30;85.00;;;;;;5030979;28;20036;-80
2021/11/27 12:26:14;;;;;;;11.30;6.95;;;5.30;85.10;;;;;;5032609;28;20554;-79
2021/11/27 12:29:06;;;;;;;12.13;7.75;;;5.40;85.60;;;;;;5043202;28;20037;-79
2021/11/27 12:31:44;;;;;;;9.77;6.70;;;5.60;85.50;;;;;;5045258;28;20063;-82
2021/11/27 12:34:32;;;;;;;11.02;7.05;;;5.60;84.70;;;;;;5038270;28;20140;-80
2021/11/27 12:36:58;;;;;;;8.48;5.50;;;5.70;84.60;;;;;;5032255;28;20076;-79
2021/11/27 12:39:24;;;;;;;13.20;7.35;;;5.70;84.00;;;;;;5039289;28;20060;-80
2021/11/27 12:41:53;;;;;;;13.60;8.45;;;5.90;83.90;;;;;;5042736;28;20033;-81
2021/11/27 12:44:43;;;;;;;11.48;7.50;;;5.80;84.60;;;;;;5038397;28;20026;-80
2021/11/27 12:47:16;;;;;;;11.73;7.68;;;5.90;84.40;;;;;;5036552;28;20392;-82
2021/11/27 12:49:45;;;;;;;11.15;7.20;;;5.90;84.90;;;;;;5042985;28;20052;-79
2021/11/27 12:52:14;;;;;;;11.25;7.45;;;5.90;84.30;;;;;;5052832;28;20029;-81
2021/11/27 12:54:41;;;;;;;12.55;6.82;;;6.00;83.90;;;;;;5057252;28;20040;-83